Time;durP1;ratioP1;P1;durP2;ratioP2;P2;SDS_P1;SDS_P2;PMS_P1;PMS_P2;Temp;Humidity;BMP_temperature;BMP_pressure;BME280_temperature;BME280_humidity;BME280_pressure;Samples;Min_cycle;Max_cycle;Signal;HPM_P1;HPM_P2
2022/05/06 00:00:07;;;;;;;;;;;;;;;;;;1043834;28;3898;-52
2022/05/06 00:00:57;;;;;;;;;;;;;;;;;;1042543;28;4289;-50
2022/05/06 00:01:27;;;;;;;;;;;;;;;;;;1044919;28;3688;-49
2022/05/06 00:01:58;;;;;;;;;;;;;;;;;;1044492;28;3936;-47
2022/05/06 00:02:28;;;;;;;;;;;;;;;;;;1043938;28;3925;-52
2022/05/06 00:02:58;;;;;;;;;;;;;;;;;;1045421;28;3889;-50
2022/05/06 00:03:37;;;;;;;;;;;;;;;;;;1045426;28;3365;-51
2022/05/06 00:04:07;;;;;;;;;;;;;;;;;;1040301;28;4717;-51
2022/05/06 00:04:37;;;;;;;;;;;;;;;;;;1042875;28;3154;-49
2022/05/06 00:05:08;;;;;;;;;;;;;;;;;;1043796;28;3814;-47
2022/05/06 00:05:39;;;;;;;;;;;;;;;;;;1046301;28;1709;-49
2022/05/06 00:06:09;;;;;;;;;;;;;;;;;;1045230;28;3832;-49
2022/05/06 00:06:39;;;;;;;;;;;;;;;;;;1044937;28;2470;-51
2022/05/06 00:07:11;;;;;;;;;;;;;;;;;;1045012;28;4208;-51
2022/05/06 00:07:42;;;;;;;;;;;;;;;;;;1044865;28;2149;-47
2022/05/06 00:08:13;;;;;;;;;;;;;;;;;;1045437;28;3911;-53
2022/05/06 00:08:44;;;;;;;;;;;;;;;;;;1045734;28;3956;-50
2022/05/06 00:09:14;;;;;;;;;;;;;;;;;;1041691;28;3957;-53
2022/05/06 00:09:44;;;;;;;;;;;;;;;;;;1044453;28;4346;-49
2022/05/06 00:10:14;;;;;;;;;;;;;;;;;;1045750;28;3355;-51
2022/05/06 00:10:45;;;;;;;;;;;;;;;;;;1044420;28;4274;-47
2022/05/06 00:11:15;;;;;;;;;;;;;;;;;;1045420;28;3833;-52
2022/05/06 00:11:45;;;;;;;;;;;;;;;;;;1044937;28;4015;-51
2022/05/06 00:12:22;;;;;;;;;;;;;;;;;;1044105;28;1593;-49
2022/05/06 00:12:59;;;;;;;;;;;;;;;;;;1038639;28;5450;-47
2022/05/06 00:13:36;;;;;;;;;;;;;;;;;;1041486;28;2148;-51
2022/05/06 00:14:06;;;;;;;;;;;;;;;;;;1039588;28;3886;-49
2022/05/06 00:14:37;;;;;;;;;;;;;;;;;;1040627;28;4055;-51
2022/05/06 00:15:08;;;;;;;;;;;;;;;;;;1039192;28;3846;-53
2022/05/06 00:15:39;;;;;;;;;;;;;;;;;;1041671;28;1627;-48
2022/05/06 00:16:09;;;;;;;;;;;;;;;;;;1036727;28;4403;-49
2022/05/06 00:16:39;;;;;;;;;;;;;;;;;;1037959;28;3935;-53
2022/05/06 00:17:10;;;;;;;;;;;;;;;;;;1037655;28;4128;-55
2022/05/06 00:17:40;;;;;;;;;;;;;;;;;;1038351;28;1697;-52
2022/05/06 00:18:10;;;;;;;;;;;;;;;;;;1039279;28;4114;-50
2022/05/06 00:18:40;;;;;;;;;;;;;;;;;;1040589;28;3305;-49
2022/05/06 00:19:11;;;;;;;;;;;;;;;;;;1037264;28;4634;-53
2022/05/06 00:19:44;;;;;;;;;;;;;;;;;;1040795;28;3818;-52
2022/05/06 00:20:15;;;;;;;;;;;;;;;;;;1043413;28;3979;-50
2022/05/06 00:20:45;;;;;;;;;;;;;;;;;;1044198;28;4019;-52
2022/05/06 00:21:15;;;;;;;;;;;;;;;;;;1042961;28;4091;-53
2022/05/06 00:21:45;;;;;;;;;;;;;;;;;;1038627;28;4087;-50
2022/05/06 00:22:16;;;;;;;;;;;;;;;;;;1040178;28;4163;-50
2022/05/06 00:22:46;;;;;;;;;;;;;;;;;;1041444;28;4043;-53
2022/05/06 00:23:16;;;;;;;;;;;;;;;;;;1039290;28;3962;-51
2022/05/06 00:23:46;;;;;;;;;;;;;;;;;;1040234;28;4440;-47
2022/05/06 00:24:17;;;;;;;;;;;;;;;;;;1039134;28;4123;-47
2022/05/06 00:24:47;;;;;;;;;;;;;;;;;;1040188;28;4267;-51
2022/05/06 00:25:17;;;;;;;;;;;;;;;;;;1039948;28;3934;-49
2022/05/06 00:25:48;;;;;;;;;;;;;;;;;;1040381;28;3821;-47
2022/05/06 00:26:18;;;;;;;;;;;;;;;;;;1039643;28;2589;-48
2022/05/06 00:26:48;;;;;;;;;;;;;;;;;;1040013;28;4064;-49
2022/05/06 00:27:19;;;;;;;;;;;;;;;;;;1035258;28;3514;-48
2022/05/06 00:27:49;;;;;;;;;;;;;;;;;;1034162;28;4102;-49
2022/05/06 00:28:21;;;;;;;;;;;;;;;;;;1038674;28;4018;-48
2022/05/06 00:28:51;;;;;;;;;;;;;;;;;;1037022;28;3904;-53
2022/05/06 00:29:22;;;;;;;;;;;;;;;;;;1038959;28;3796;-52
2022/05/06 00:29:52;;;;;;;;;;;;;;;;;;1039776;28;3812;-50
2022/05/06 00:30:22;;;;;;;;;;;;;;;;;;1035986;28;4167;-52
2022/05/06 00:30:52;;;;;;;;;;;;;;;;;;1035929;28;4075;-50
2022/05/06 00:31:23;;;;;;;;;;;;;;;;;;1039350;28;3752;-51
2022/05/06 00:31:53;;;;;;;;;;;;;;;;;;1037562;28;4183;-50
2022/05/06 00:32:23;;;;;;;;;;;;;;;;;;1039580;28;4132;-49
2022/05/06 00:32:53;;;;;;;;;;;;;;;;;;1040564;28;3833;-51
2022/05/06 00:33:24;;;;;;;;;;;;;;;;;;1039947;28;3707;-52
2022/05/06 00:33:54;;;;;;;;;;;;;;;;;;1039842;28;3994;-49
2022/05/06 00:34:24;;;;;;;;;;;;;;;;;;1039547;28;3875;-50
2022/05/06 00:34:55;;;;;;;;;;;;;;;;;;1042729;28;4066;-50
2022/05/06 00:35:25;;;;;;;;;;;;;;;;;;1042128;28;4126;-49
2022/05/06 00:35:57;;;;;;;;;;;;;;;;;;1041004;28;3940;-51
2022/05/06 00:36:27;;;;;;;;;;;;;;;;;;1043024;28;4354;-50
2022/05/06 00:36:58;;;;;;;;;;;;;;;;;;1039765;28;4439;-49
2022/05/06 00:37:28;;;;;;;;;;;;;;;;;;1040782;28;2480;-49
2022/05/06 00:37:58;;;;;;;;;;;;;;;;;;1039523;28;3809;-49
2022/05/06 00:38:29;;;;;;;;;;;;;;;;;;1039197;28;3799;-50
2022/05/06 00:38:59;;;;;;;;;;;;;;;;;;1039225;28;3911;-52
2022/05/06 00:39:36;;;;;;;;;;;;;;;;;;1040601;28;4142;-50
2022/05/06 00:40:07;;;;;;;;;;;;;;;;;;1041341;28;4416;-51
2022/05/06 00:40:37;;;;;;;;;;;;;;;;;;1040001;28;4181;-48
2022/05/06 00:41:08;;;;;;;;;;;;;;;;;;1038754;28;4072;-50
2022/05/06 00:41:39;;;;;;;;;;;;;;;;;;1040150;28;4218;-52
2022/05/06 00:42:09;;;;;;;;;;;;;;;;;;1040589;28;3788;-51
2022/05/06 00:42:39;;;;;;;;;;;;;;;;;;1038825;28;2720;-51
2022/05/06 00:43:10;;;;;;;;;;;;;;;;;;1040887;28;3897;-49
2022/05/06 00:43:41;;;;;;;;;;;;;;;;;;1038720;28;3240;-49
2022/05/06 00:44:11;;;;;;;;;;;;;;;;;;1041186;28;3943;-50
2022/05/06 00:44:41;;;;;;;;;;;;;;;;;;1037939;28;3496;-52
2022/05/06 00:45:12;;;;;;;;;;;;;;;;;;1037715;28;4237;-50
2022/05/06 00:45:53;;;;;;;;;;;;;;;;;;1036531;28;3972;-49
2022/05/06 00:46:24;;;;;;;;;;;;;;;;;;1038638;28;3847;-49
2022/05/06 00:46:56;;;;;;;;;;;;;;;;;;1039520;28;4110;-50
2022/05/06 00:47:28;;;;;;;;;;;;;;;;;;1040324;28;2979;-52
2022/05/06 00:47:59;;;;;;;;;;;;;;;;;;1039994;28;4014;-48
2022/05/06 00:48:32;;;;;;;;;;;;;;;;;;1036664;28;3973;-51
2022/05/06 00:49:03;;;;;;;;;;;;;;;;;;1039233;28;4421;-53
2022/05/06 00:49:35;;;;;;;;;;;;;;;;;;1040331;28;4114;-47
2022/05/06 00:50:05;;;;;;;;;;;;;;;;;;1040525;28;3788;-49
2022/05/06 00:50:35;;;;;;;;;;;;;;;;;;1040620;28;3094;-51
2022/05/06 00:51:06;;;;;;;;;;;;;;;;;;1037780;28;3966;-48
2022/05/06 00:51:38;;;;;;;;;;;;;;;;;;1039028;28;3684;-49
2022/05/06 00:52:09;;;;;;;;;;;;;;;;;;1039827;28;4103;-47
2022/05/06 00:52:39;;;;;;;;;;;;;;;;;;1040721;28;3960;-48
2022/05/06 00:53:10;;;;;;;;;;;;;;;;;;1041218;28;3966;-52
2022/05/06 00:53:40;;;;;;;;;;;;;;;;;;1040065;28;2402;-52
2022/05/06 00:54:11;;;;;;;;;;;;;;;;;;1041091;28;3965;-51
2022/05/06 00:54:41;;;;;;;;;;;;;;;;;;1038830;28;3112;-55
2022/05/06 00:55:12;;;;;;;;;;;;;;;;;;1038810;28;4474;-53
2022/05/06 00:55:43;;;;;;;;;;;;;;;;;;1039031;28;5047;-50
2022/05/06 00:56:14;;;;;;;;;;;;;;;;;;1038811;28;3451;-52
2022/05/06 00:56:46;;;;;;;;;;;;;;;;;;1035129;28;4250;-50
2022/05/06 00:57:17;;;;;;;;;;;;;;;;;;1031936;28;3821;-51
2022/05/06 00:57:47;;;;;;;;;;;;;;;;;;1033708;28;4118;-53
2022/05/06 00:58:17;;;;;;;;;;;;;;;;;;1037869;28;5250;-52
2022/05/06 00:58:48;;;;;;;;;;;;;;;;;;1038885;28;3805;-50
2022/05/06 00:59:18;;;;;;;;;;;;;;;;;;1040791;28;2100;-52
2022/05/06 01:00:37;;;;;;;;;;;;;;;;;;1039917;28;3885;-50
2022/05/06 01:01:07;;;;;;;;;;;;;;;;;;1040630;28;3870;-53
2022/05/06 01:01:37;;;;;;;;;;;;;;;;;;1038760;28;3962;-51
2022/05/06 01:02:08;;;;;;;;;;;;;;;;;;1039905;28;3771;-49
2022/05/06 01:02:38;;;;;;;;;;;;;;;;;;1039601;28;4110;-53
2022/05/06 01:03:08;;;;;;;;;;;;;;;;;;1040460;28;4080;-48
2022/05/06 01:03:39;;;;;;;;;;;;;;;;;;1040008;28;3957;-50
2022/05/06 01:04:10;;;;;;;;;;;;;;;;;;1037802;28;4186;-52
2022/05/06 01:04:41;;;;;;;;;;;;;;;;;;1039002;28;4439;-51
2022/05/06 01:05:12;;;;;;;;;;;;;;;;;;1040650;28;3823;-52
2022/05/06 01:05:42;;;;;;;;;;;;;;;;;;1040314;28;4073;-51
2022/05/06 01:06:15;;;;;;;;;;;;;;;;;;1042987;28;3794;-52
2022/05/06 01:06:46;;;;;;;;;;;;;;;;;;1038018;28;4634;-53
2022/05/06 01:07:17;;;;;;;;;;;;;;;;;;1040633;28;2154;-47
2022/05/06 01:07:49;;;;;;;;;;;;;;;;;;1039514;28;4002;-52
2022/05/06 01:08:20;;;;;;;;;;;;;;;;;;1038390;28;3781;-52
2022/05/06 01:08:50;;;;;;;;;;;;;;;;;;1034463;28;4605;-49
2022/05/06 01:09:20;;;;;;;;;;;;;;;;;;1040515;28;3493;-51
2022/05/06 01:09:51;;;;;;;;;;;;;;;;;;1039318;28;3931;-51
2022/05/06 01:10:21;;;;;;;;;;;;;;;;;;1040737;28;2600;-49
2022/05/06 01:10:51;;;;;;;;;;;;;;;;;;1038857;28;4355;-53
2022/05/06 01:11:22;;;;;;;;;;;;;;;;;;1041174;28;4412;-48
2022/05/06 01:11:52;;;;;;;;;;;;;;;;;;1039625;28;4239;-49
2022/05/06 01:12:29;;;;;;;;;;;;;;;;;;1038745;28;3283;-50
2022/05/06 01:12:59;;;;;;;;;;;;;;;;;;1038455;28;3852;-51
2022/05/06 01:13:29;;;;;;;;;;;;;;;;;;1041109;28;3308;-49
2022/05/06 01:14:00;;;;;;;;;;;;;;;;;;1039827;28;3996;-49
2022/05/06 01:14:33;;;;;;;;;;;;;;;;;;1040024;28;2764;-51
2022/05/06 01:15:20;;;;;;;;;;;;;;;;;;1039927;28;4380;-49
2022/05/06 01:15:53;;;;;;;;;;;;;;;;;;1040901;28;4382;-48
2022/05/06 01:16:23;;;;;;;;;;;;;;;;;;1040028;28;3189;-48
2022/05/06 01:16:54;;;;;;;;;;;;;;;;;;1039043;28;3915;-50
2022/05/06 01:17:24;;;;;;;;;;;;;;;;;;1041125;28;3474;-49
2022/05/06 01:17:55;;;;;;;;;;;;;;;;;;1039901;28;3821;-49
2022/05/06 01:18:25;;;;;;;;;;;;;;;;;;1039216;28;3251;-53
2022/05/06 01:18:55;;;;;;;;;;;;;;;;;;1038775;28;3909;-50
2022/05/06 01:19:26;;;;;;;;;;;;;;;;;;1040856;28;2617;-50
2022/05/06 01:19:56;;;;;;;;;;;;;;;;;;1039232;28;4092;-47
2022/05/06 01:20:26;;;;;;;;;;;;;;;;;;1040072;28;3146;-51
2022/05/06 01:20:58;;;;;;;;;;;;;;;;;;1043239;28;4067;-51
2022/05/06 01:21:32;;;;;;;;;;;;;;;;;;1045864;28;1681;-50
2022/05/06 01:22:03;;;;;;;;;;;;;;;;;;1040479;28;3912;-49
2022/05/06 01:22:33;;;;;;;;;;;;;;;;;;1044164;28;4165;-48
2022/05/06 01:23:04;;;;;;;;;;;;;;;;;;1040091;28;4246;-49
2022/05/06 01:23:35;;;;;;;;;;;;;;;;;;1041095;28;3243;-51
2022/05/06 01:24:05;;;;;;;;;;;;;;;;;;1040402;28;4077;-48
2022/05/06 01:24:36;;;;;;;;;;;;;;;;;;1040341;28;3262;-51
2022/05/06 01:25:06;;;;;;;;;;;;;;;;;;1038727;28;4822;-51
2022/05/06 01:25:36;;;;;;;;;;;;;;;;;;1040910;28;3193;-49
2022/05/06 01:26:06;;;;;;;;;;;;;;;;;;1037244;28;3959;-49
2022/05/06 01:26:55;;;;;;;;;;;;;;;;;;1040984;28;2200;-48
2022/05/06 01:27:28;;;;;;;;;;;;;;;;;;1038978;28;4408;-49
2022/05/06 01:28:03;;;;;;;;;;;;;;;;;;1040072;28;4257;-50
2022/05/06 01:28:35;;;;;;;;;;;;;;;;;;1040493;28;3071;-52
2022/05/06 01:29:06;;;;;;;;;;;;;;;;;;1039621;28;3904;-50
2022/05/06 01:29:37;;;;;;;;;;;;;;;;;;1038481;28;3306;-49
2022/05/06 01:30:09;;;;;;;;;;;;;;;;;;1039246;28;4165;-51
2022/05/06 01:30:45;;;;;;;;;;;;;;;;;;1041800;28;2509;-48
2022/05/06 01:31:19;;;;;;;;;;;;;;;;;;1039610;28;3923;-47
2022/05/06 01:31:52;;;;;;;;;;;;;;;;;;1041022;28;4060;-48
2022/05/06 01:32:23;;;;;;;;;;;;;;;;;;1038750;28;3228;-47
2022/05/06 01:32:54;;;;;;;;;;;;;;;;;;1039011;28;4376;-50
2022/05/06 01:33:31;;;;;;;;;;;;;;;;;;1040979;28;1483;-49
2022/05/06 01:34:01;;;;;;;;;;;;;;;;;;1040437;28;3960;-53
2022/05/06 01:34:33;;;;;;;;;;;;;;;;;;1040983;28;2810;-49
2022/05/06 01:35:04;;;;;;;;;;;;;;;;;;1038429;28;3870;-49
2022/05/06 01:35:36;;;;;;;;;;;;;;;;;;1040249;28;3235;-52
2022/05/06 01:36:08;;;;;;;;;;;;;;;;;;1038487;28;3908;-51
2022/05/06 01:36:38;;;;;;;;;;;;;;;;;;1041490;28;2171;-50
2022/05/06 01:37:11;;;;;;;;;;;;;;;;;;1039194;28;3950;-50
2022/05/06 01:37:42;;;;;;;;;;;;;;;;;;1039568;28;3919;-47
2022/05/06 01:38:17;;;;;;;;;;;;;;;;;;1039732;28;3893;-52
2022/05/06 01:38:50;;;;;;;;;;;;;;;;;;1038987;28;4433;-50
2022/05/06 01:39:23;;;;;;;;;;;;;;;;;;1040611;28;2651;-50
2022/05/06 01:39:55;;;;;;;;;;;;;;;;;;1041141;28;4062;-51
2022/05/06 01:40:27;;;;;;;;;;;;;;;;;;1040035;28;3840;-53
2022/05/06 01:41:02;;;;;;;;;;;;;;;;;;1039249;28;4296;-54
2022/05/06 01:41:35;;;;;;;;;;;;;;;;;;1039887;28;3612;-50
2022/05/06 01:42:08;;;;;;;;;;;;;;;;;;1038757;28;3949;-50
2022/05/06 01:42:39;;;;;;;;;;;;;;;;;;1039323;28;3297;-52
2022/05/06 01:43:13;;;;;;;;;;;;;;;;;;1043268;28;3879;-51
2022/05/06 01:43:43;;;;;;;;;;;;;;;;;;1039834;28;3899;-53
2022/05/06 01:44:16;;;;;;;;;;;;;;;;;;1039854;28;4218;-51
2022/05/06 01:44:47;;;;;;;;;;;;;;;;;;1040311;28;3915;-49
2022/05/06 01:45:19;;;;;;;;;;;;;;;;;;1040117;28;3770;-54
2022/05/06 01:45:50;;;;;;;;;;;;;;;;;;1040158;28;4127;-49
2022/05/06 01:46:22;;;;;;;;;;;;;;;;;;1041198;28;3267;-51
2022/05/06 01:46:54;;;;;;;;;;;;;;;;;;1039977;28;3976;-51
2022/05/06 01:47:26;;;;;;;;;;;;;;;;;;1038836;28;3936;-48
2022/05/06 01:47:56;;;;;;;;;;;;;;;;;;1038977;28;4499;-50
2022/05/06 01:48:28;;;;;;;;;;;;;;;;;;1039688;28;3993;-50
2022/05/06 01:48:58;;;;;;;;;;;;;;;;;;1040337;28;3988;-50
2022/05/06 01:49:30;;;;;;;;;;;;;;;;;;1040331;28;3523;-53
2022/05/06 01:50:00;;;;;;;;;;;;;;;;;;1040549;28;3910;-48
2022/05/06 01:50:32;;;;;;;;;;;;;;;;;;1038693;28;3392;-49
2022/05/06 01:51:03;;;;;;;;;;;;;;;;;;1040606;28;3883;-51
2022/05/06 01:51:33;;;;;;;;;;;;;;;;;;1039673;28;3937;-48
2022/05/06 01:52:06;;;;;;;;;;;;;;;;;;1044588;28;3783;-50
2022/05/06 01:52:39;;;;;;;;;;;;;;;;;;1039339;28;3947;-50
2022/05/06 01:53:09;;;;;;;;;;;;;;;;;;1040607;28;4244;-51
2022/05/06 01:53:40;;;;;;;;;;;;;;;;;;1040921;28;2969;-52
2022/05/06 01:54:10;;;;;;;;;;;;;;;;;;1039463;28;4376;-51
2022/05/06 01:54:41;;;;;;;;;;;;;;;;;;1039400;28;3757;-50
2022/05/06 01:55:12;;;;;;;;;;;;;;;;;;1039577;28;4199;-49
2022/05/06 01:55:43;;;;;;;;;;;;;;;;;;1040898;28;4488;-51
2022/05/06 01:56:17;;;;;;;;;;;;;;;;;;1038732;28;3460;-49
2022/05/06 01:56:47;;;;;;;;;;;;;;;;;;1040049;28;3891;-47
2022/05/06 01:57:17;;;;;;;;;;;;;;;;;;1038821;28;3727;-52
2022/05/06 01:57:48;;;;;;;;;;;;;;;;;;1041689;28;3885;-49
2022/05/06 01:58:18;;;;;;;;;;;;;;;;;;1040725;28;4108;-49
2022/05/06 01:58:49;;;;;;;;;;;;;;;;;;1039547;28;4116;-52
2022/05/06 01:59:19;;;;;;;;;;;;;;;;;;1041448;28;3186;-49
2022/05/06 01:59:49;;;;;;;;;;;;;;;;;;1040173;28;4071;-48
2022/05/06 02:00:19;;;;;;;;;;;;;;;;;;1040620;28;3805;-50
2022/05/06 02:00:50;;;;;;;;;;;;;;;;;;1041218;28;3989;-47
2022/05/06 02:01:20;;;;;;;;;;;;;;;;;;1041152;28;3735;-50
2022/05/06 02:01:50;;;;;;;;;;;;;;;;;;1040581;28;4007;-50
2022/05/06 02:02:21;;;;;;;;;;;;;;;;;;1041076;28;4024;-50
2022/05/06 02:02:51;;;;;;;;;;;;;;;;;;1040390;28;4415;-48
2022/05/06 02:05:19;;;;;;;;;;;;;;;;;;1041330;28;3876;-50
2022/05/06 02:05:49;;;;;;;;;;;;;;;;;;1041063;28;5033;-51
2022/05/06 02:06:20;;;;;;;;;;;;;;;;;;1040837;28;3976;-49
2022/05/06 02:06:50;;;;;;;;;;;;;;;;;;1038200;28;4490;-50
2022/05/06 02:07:20;;;;;;;;;;;;;;;;;;1037998;28;2481;-49
2022/05/06 02:07:52;;;;;;;;;;;;;;;;;;1037883;28;4603;-47
2022/05/06 02:08:23;;;;;;;;;;;;;;;;;;1039499;28;3592;-51
2022/05/06 02:08:53;;;;;;;;;;;;;;;;;;1040304;28;5365;-53
2022/05/06 02:09:23;;;;;;;;;;;;;;;;;;1041341;28;4030;-50
2022/05/06 02:09:53;;;;;;;;;;;;;;;;;;1041619;28;4420;-51
2022/05/06 02:10:25;;;;;;;;;;;;;;;;;;1041103;28;2918;-50
2022/05/06 02:10:55;;;;;;;;;;;;;;;;;;1039567;28;3820;-48
2022/05/06 02:11:26;;;;;;;;;;;;;;;;;;1040896;28;2528;-51
2022/05/06 02:11:56;;;;;;;;;;;;;;;;;;1040468;28;4115;-48
2022/05/06 02:12:40;;;;;;;;;;;;;;;;;;1042270;28;3129;-49
2022/05/06 02:13:19;;;;;;;;;;;;;;;;;;1049188;28;3845;-52
2022/05/06 02:13:49;;;;;;;;;;;;;;;;;;1049758;28;4064;-51
2022/05/06 02:14:19;;;;;;;;;;;;;;;;;;1049408;28;3625;-50
2022/05/06 02:14:50;;;;;;;;;;;;;;;;;;1048553;28;4424;-50
2022/05/06 02:15:20;;;;;;;;;;;;;;;;;;1049262;28;2690;-50
2022/05/06 02:15:50;;;;;;;;;;;;;;;;;;1047157;28;4054;-52
2022/05/06 02:16:21;;;;;;;;;;;;;;;;;;1043683;28;3166;-48
2022/05/06 02:16:51;;;;;;;;;;;;;;;;;;1043549;28;3850;-49
2022/05/06 02:17:21;;;;;;;;;;;;;;;;;;1045683;28;1986;-51
2022/05/06 02:17:51;;;;;;;;;;;;;;;;;;1042744;28;4403;-49
2022/05/06 02:18:22;;;;;;;;;;;;;;;;;;1049848;28;4025;-48
2022/05/06 02:18:52;;;;;;;;;;;;;;;;;;1046753;28;4478;-49
2022/05/06 02:19:22;;;;;;;;;;;;;;;;;;1049535;28;2342;-49
2022/05/06 02:19:52;;;;;;;;;;;;;;;;;;1048890;28;4064;-49
2022/05/06 02:20:23;;;;;;;;;;;;;;;;;;1049522;28;3178;-52
2022/05/06 02:20:54;;;;;;;;;;;;;;;;;;1046532;28;4102;-51
2022/05/06 02:21:25;;;;;;;;;;;;;;;;;;1050433;28;2472;-52
2022/05/06 02:21:55;;;;;;;;;;;;;;;;;;1049852;28;4150;-49
2022/05/06 02:22:29;;;;;;;;;;;;;;;;;;1048041;28;4197;-50
2022/05/06 02:22:59;;;;;;;;;;;;;;;;;;1049741;28;3898;-49
2022/05/06 02:23:29;;;;;;;;;;;;;;;;;;1048807;28;3172;-51
2022/05/06 02:24:00;;;;;;;;;;;;;;;;;;1050134;28;3814;-50
2022/05/06 02:24:30;;;;;;;;;;;;;;;;;;1048320;28;3357;-51
2022/05/06 02:25:00;;;;;;;;;;;;;;;;;;1048506;28;4220;-49
2022/05/06 02:25:30;;;;;;;;;;;;;;;;;;1049413;28;3913;-51
2022/05/06 02:26:01;;;;;;;;;;;;;;;;;;1049107;28;3802;-49
2022/05/06 02:26:31;;;;;;;;;;;;;;;;;;1046983;28;4023;-48
2022/05/06 02:27:01;;;;;;;;;;;;;;;;;;1050300;28;3906;-47
2022/05/06 02:27:31;;;;;;;;;;;;;;;;;;1049405;28;3161;-48
2022/05/06 02:28:02;;;;;;;;;;;;;;;;;;1044950;28;4104;-49
2022/05/06 02:28:33;;;;;;;;;;;;;;;;;;1042962;28;3867;-49
2022/05/06 02:29:09;;;;;;;;;;;;;;;;;;1046189;28;4129;-48
2022/05/06 02:33:12;;;;;;;;;;;;;;;;;;1046568;28;4131;-46
2022/05/06 02:33:12;;;;;;;;;;;;;;;;;;1046466;28;2578;-49
2022/05/06 02:33:43;;;;;;;;;;;;;;;;;;1049195;28;4392;-48
2022/05/06 02:34:16;;;;;;;;;;;;;;;;;;1048324;28;3980;-50
2022/05/06 02:34:47;;;;;;;;;;;;;;;;;;1046706;28;3938;-54
2022/05/06 02:35:17;;;;;;;;;;;;;;;;;;1050335;28;3397;-51
2022/05/06 02:35:47;;;;;;;;;;;;;;;;;;1046520;28;3960;-50
2022/05/06 02:36:18;;;;;;;;;;;;;;;;;;1049061;28;3734;-53
2022/05/06 02:36:48;;;;;;;;;;;;;;;;;;1049295;28;4717;-50
2022/05/06 02:37:19;;;;;;;;;;;;;;;;;;1050669;28;1246;-53
2022/05/06 02:37:49;;;;;;;;;;;;;;;;;;1047848;28;4270;-50
2022/05/06 02:38:21;;;;;;;;;;;;;;;;;;1050727;28;3442;-53
2022/05/06 02:38:52;;;;;;;;;;;;;;;;;;1047575;28;4018;-55
2022/05/06 02:39:22;;;;;;;;;;;;;;;;;;1050320;28;1941;-51
2022/05/06 02:39:52;;;;;;;;;;;;;;;;;;1047523;28;4276;-52
2022/05/06 02:40:22;;;;;;;;;;;;;;;;;;1049479;28;4108;-48
2022/05/06 02:40:53;;;;;;;;;;;;;;;;;;1048627;28;4518;-50
2022/05/06 02:41:23;;;;;;;;;;;;;;;;;;1050079;28;2149;-53
2022/05/06 02:41:55;;;;;;;;;;;;;;;;;;1048835;28;3827;-49
2022/05/06 02:42:26;;;;;;;;;;;;;;;;;;1049570;28;3089;-52
2022/05/06 02:42:56;;;;;;;;;;;;;;;;;;1048012;28;3987;-50
2022/05/06 02:43:26;;;;;;;;;;;;;;;;;;1049879;28;2057;-49
2022/05/06 02:43:56;;;;;;;;;;;;;;;;;;1049692;28;4496;-52
2022/05/06 02:44:27;;;;;;;;;;;;;;;;;;1049464;28;2927;-49
2022/05/06 02:44:57;;;;;;;;;;;;;;;;;;1048918;28;3900;-50
2022/05/06 02:45:27;;;;;;;;;;;;;;;;;;1049096;28;4079;-51
2022/05/06 02:45:58;;;;;;;;;;;;;;;;;;1049356;28;3899;-51
2022/05/06 02:46:28;;;;;;;;;;;;;;;;;;1049629;28;4005;-48
2022/05/06 02:46:58;;;;;;;;;;;;;;;;;;1049104;28;4056;-51
2022/05/06 02:47:29;;;;;;;;;;;;;;;;;;1050275;28;1576;-50
2022/05/06 02:47:59;;;;;;;;;;;;;;;;;;1047363;28;3949;-49
2022/05/06 02:48:30;;;;;;;;;;;;;;;;;;1047261;28;4124;-51
2022/05/06 02:49:01;;;;;;;;;;;;;;;;;;1050123;28;4529;-50
2022/05/06 02:49:31;;;;;;;;;;;;;;;;;;1045684;28;4241;-50
2022/05/06 02:50:01;;;;;;;;;;;;;;;;;;1045252;28;3940;-50
2022/05/06 02:50:32;;;;;;;;;;;;;;;;;;1045549;28;3913;-52
2022/05/06 02:51:02;;;;;;;;;;;;;;;;;;1045372;28;3863;-50
2022/05/06 02:51:32;;;;;;;;;;;;;;;;;;1048271;28;3835;-48
2022/05/06 02:52:04;;;;;;;;;;;;;;;;;;1050490;28;4058;-50
2022/05/06 02:52:35;;;;;;;;;;;;;;;;;;1049536;28;3832;-49
2022/05/06 02:53:05;;;;;;;;;;;;;;;;;;1049249;28;4407;-53
2022/05/06 02:53:36;;;;;;;;;;;;;;;;;;1049677;28;3950;-50
2022/05/06 02:54:07;;;;;;;;;;;;;;;;;;1049565;28;3904;-54
2022/05/06 02:54:37;;;;;;;;;;;;;;;;;;1049356;28;3781;-48
2022/05/06 02:55:08;;;;;;;;;;;;;;;;;;1049774;28;3892;-51
2022/05/06 02:55:39;;;;;;;;;;;;;;;;;;1050049;28;3806;-50
2022/05/06 02:56:09;;;;;;;;;;;;;;;;;;1049637;28;4181;-50
2022/05/06 02:56:39;;;;;;;;;;;;;;;;;;1048344;28;4092;-49
2022/05/06 02:57:09;;;;;;;;;;;;;;;;;;1047586;28;4778;-51
2022/05/06 02:57:40;;;;;;;;;;;;;;;;;;1049123;28;4098;-49
2022/05/06 02:58:10;;;;;;;;;;;;;;;;;;1049641;28;3907;-48
2022/05/06 02:58:40;;;;;;;;;;;;;;;;;;1048765;28;3306;-51
2022/05/06 02:59:11;;;;;;;;;;;;;;;;;;1049070;28;4212;-49
2022/05/06 02:59:41;;;;;;;;;;;;;;;;;;1049487;28;4230;-50
2022/05/06 03:00:12;;;;;;;;;;;;;;;;;;1049959;28;4156;-49
2022/05/06 03:00:43;;;;;;;;;;;;;;;;;;1049428;28;3246;-48
2022/05/06 03:01:19;;;;;;;;;;;;;;;;;;1048583;28;4156;-50
2022/05/06 03:01:50;;;;;;;;;;;;;;;;;;1049303;28;4235;-51
2022/05/06 03:02:20;;;;;;;;;;;;;;;;;;1049988;28;3232;-50
2022/05/06 03:02:50;;;;;;;;;;;;;;;;;;1048089;28;3917;-50
2022/05/06 03:03:21;;;;;;;;;;;;;;;;;;1049076;28;2677;-48
2022/05/06 03:03:51;;;;;;;;;;;;;;;;;;1048197;28;3890;-55
2022/05/06 03:04:22;;;;;;;;;;;;;;;;;;1048443;28;3758;-50
2022/05/06 03:04:52;;;;;;;;;;;;;;;;;;1042592;28;4012;-46
2022/05/06 03:05:23;;;;;;;;;;;;;;;;;;1046381;28;2563;-51
2022/05/06 03:05:53;;;;;;;;;;;;;;;;;;1047817;28;3968;-49
2022/05/06 03:06:23;;;;;;;;;;;;;;;;;;1048797;28;3948;-51
2022/05/06 03:06:54;;;;;;;;;;;;;;;;;;1045931;28;3926;-47
2022/05/06 03:07:24;;;;;;;;;;;;;;;;;;1047778;28;4105;-50
2022/05/06 03:07:54;;;;;;;;;;;;;;;;;;1047212;28;3880;-50
2022/05/06 03:08:24;;;;;;;;;;;;;;;;;;1046475;28;4308;-52
2022/05/06 03:08:55;;;;;;;;;;;;;;;;;;1047155;28;4043;-49
2022/05/06 03:09:25;;;;;;;;;;;;;;;;;;1048998;28;4628;-49
2022/05/06 03:09:55;;;;;;;;;;;;;;;;;;1049359;28;3817;-50
2022/05/06 03:10:26;;;;;;;;;;;;;;;;;;1048137;28;4031;-48
2022/05/06 03:10:56;;;;;;;;;;;;;;;;;;1047260;28;3892;-52
2022/05/06 03:11:26;;;;;;;;;;;;;;;;;;1046235;28;4073;-48
2022/05/06 03:11:56;;;;;;;;;;;;;;;;;;1045905;28;3929;-51
2022/05/06 03:12:40;;;;;;;;;;;;;;;;;;1046937;28;3948;-51
2022/05/06 03:13:17;;;;;;;;;;;;;;;;;;1047124;28;3975;-49
2022/05/06 03:13:47;;;;;;;;;;;;;;;;;;1048010;28;4016;-51
2022/05/06 03:14:18;;;;;;;;;;;;;;;;;;1047303;28;4164;-51
2022/05/06 03:14:48;;;;;;;;;;;;;;;;;;1046215;28;4307;-49
2022/05/06 03:15:18;;;;;;;;;;;;;;;;;;1043591;28;4328;-52
2022/05/06 03:15:49;;;;;;;;;;;;;;;;;;1044454;28;4140;-50
2022/05/06 03:16:19;;;;;;;;;;;;;;;;;;1042387;28;4043;-52
2022/05/06 03:16:49;;;;;;;;;;;;;;;;;;1043789;28;4428;-52
2022/05/06 03:17:19;;;;;;;;;;;;;;;;;;1047936;28;4044;-54
2022/05/06 03:17:50;;;;;;;;;;;;;;;;;;1046591;28;4240;-49
2022/05/06 03:18:20;;;;;;;;;;;;;;;;;;1041846;28;4043;-47
2022/05/06 03:18:51;;;;;;;;;;;;;;;;;;1039595;28;3903;-46
2022/05/06 03:19:21;;;;;;;;;;;;;;;;;;1041832;28;4042;-49
2022/05/06 03:19:51;;;;;;;;;;;;;;;;;;1041686;28;4476;-47
2022/05/06 03:20:21;;;;;;;;;;;;;;;;;;1047421;28;3940;-52
2022/05/06 03:20:52;;;;;;;;;;;;;;;;;;1044398;28;5344;-49
2022/05/06 03:21:22;;;;;;;;;;;;;;;;;;1044760;28;4088;-49
2022/05/06 03:21:54;;;;;;;;;;;;;;;;;;1043144;28;4066;-47
2022/05/06 03:22:24;;;;;;;;;;;;;;;;;;1043647;28;4055;-50
2022/05/06 03:22:55;;;;;;;;;;;;;;;;;;1041057;28;4135;-48
2022/05/06 03:23:25;;;;;;;;;;;;;;;;;;1041354;28;4083;-50
2022/05/06 03:23:57;;;;;;;;;;;;;;;;;;1041065;28;6150;-46
2022/05/06 03:24:27;;;;;;;;;;;;;;;;;;1041569;28;4371;-47
2022/05/06 03:24:57;;;;;;;;;;;;;;;;;;1042708;28;3863;-51
2022/05/06 03:25:28;;;;;;;;;;;;;;;;;;1044129;28;4008;-51
2022/05/06 03:25:58;;;;;;;;;;;;;;;;;;1039130;28;4685;-51
2022/05/06 03:26:28;;;;;;;;;;;;;;;;;;1038908;28;4396;-48
2022/05/06 03:26:59;;;;;;;;;;;;;;;;;;1041810;28;4112;-50
2022/05/06 03:28:18;;;;;;;;;;;;;;;;;;1046554;28;3971;-47
2022/05/06 03:28:48;;;;;;;;;;;;;;;;;;1045642;28;4441;-50
2022/05/06 03:29:19;;;;;;;;;;;;;;;;;;1043190;28;4332;-47
2022/05/06 03:29:49;;;;;;;;;;;;;;;;;;1038026;28;4270;-46
2022/05/06 03:30:20;;;;;;;;;;;;;;;;;;1038898;28;4211;-46
2022/05/06 03:30:52;;;;;;;;;;;;;;;;;;1039675;28;4096;-49
2022/05/06 03:31:22;;;;;;;;;;;;;;;;;;1044738;28;3887;-47
2022/05/06 03:31:53;;;;;;;;;;;;;;;;;;1046860;28;4084;-46
2022/05/06 03:32:23;;;;;;;;;;;;;;;;;;1043192;28;4060;-46
2022/05/06 03:32:58;;;;;;;;;;;;;;;;;;1043120;28;4206;-47
2022/05/06 03:33:30;;;;;;;;;;;;;;;;;;1043790;28;4267;-46
2022/05/06 03:34:01;;;;;;;;;;;;;;;;;;1042877;28;4005;-47
2022/05/06 03:34:31;;;;;;;;;;;;;;;;;;1047906;28;4039;-48
2022/05/06 03:35:02;;;;;;;;;;;;;;;;;;1046698;28;4476;-48
2022/05/06 03:35:33;;;;;;;;;;;;;;;;;;1044823;28;4546;-49
2022/05/06 03:36:04;;;;;;;;;;;;;;;;;;1042120;28;4188;-48
2022/05/06 03:36:34;;;;;;;;;;;;;;;;;;1044139;28;4341;-49
2022/05/06 03:37:04;;;;;;;;;;;;;;;;;;1041555;28;4089;-48
2022/05/06 03:37:38;;;;;;;;;;;;;;;;;;1048632;28;4019;-50
2022/05/06 03:38:08;;;;;;;;;;;;;;;;;;1046390;28;4790;-50
2022/05/06 03:38:38;;;;;;;;;;;;;;;;;;1046451;28;3363;-47
2022/05/06 03:39:10;;;;;;;;;;;;;;;;;;1043652;28;4272;-47
2022/05/06 03:39:41;;;;;;;;;;;;;;;;;;1045036;28;4415;-47
2022/05/06 03:40:11;;;;;;;;;;;;;;;;;;1043170;28;4166;-48
2022/05/06 03:40:42;;;;;;;;;;;;;;;;;;1044117;28;4208;-49
2022/05/06 03:41:12;;;;;;;;;;;;;;;;;;1045203;28;4269;-48
2022/05/06 03:41:42;;;;;;;;;;;;;;;;;;1046285;28;4003;-48
2022/05/06 03:42:13;;;;;;;;;;;;;;;;;;1046707;28;3694;-44
2022/05/06 03:42:43;;;;;;;;;;;;;;;;;;1043442;28;3975;-47